Time;durP1;ratioP1;P1;durP2;ratioP2;P2;SDS_P1;SDS_P2;PMS_P1;PMS_P2;Temp;Humidity;BMP_temperature;BMP_pressure;BME280_temperature;BME280_humidity;BME280_pressure;Samples;Min_cycle;Max_cycle;Signal;HPM_P1;HPM_P2
2024/01/31 00:00:41;;;;;;;16.05;10.30;;;;;;;6.74;54.26;101541.00;4973972;28;96746;-79
2024/01/31 00:03:07;;;;;;;22.42;12.90;;;;;;;7.19;54.05;101612.41;4963150;28;97322;-79
2024/01/31 00:05:33;;;;;;;19.85;11.35;;;;;;;7.24;53.87;101615.88;4959417;28;101429;-78
2024/01/31 00:07:58;;;;;;;20.77;10.38;;;;;;;7.11;54.06;101595.88;4990534;28;97857;-79
2024/01/31 00:10:24;;;;;;;19.02;11.13;;;;;;;7.26;54.22;101629.81;4963247;28;96789;-78
2024/01/31 00:12:51;;;;;;;18.10;10.40;;;;;;;7.10;54.22;101594.09;4947528;28;97126;-78
2024/01/31 00:15:16;;;;;;;17.67;11.88;;;;;;;7.13;54.27;101604.59;4971461;28;97491;-78
2024/01/31 00:17:42;;;;;;;23.67;10.93;;;;;;;7.35;54.27;101635.03;4969596;28;102041;-78
2024/01/31 00:20:08;;;;;;;17.15;11.27;;;;;;;7.15;53.93;101601.06;4973868;28;96758;-78
2024/01/31 00:22:33;;;;;;;18.10;11.40;;;;;;;7.13;54.08;101594.13;4961846;28;97248;-78
2024/01/31 00:25:00;;;;;;;15.70;10.00;;;;;;;7.28;53.97;101615.03;4956913;28;100094;-77
2024/01/31 00:27:25;;;;;;;16.10;10.45;;;;;;;7.33;54.12;101623.75;4989001;28;97358;-78
2024/01/31 00:29:51;;;;;;;20.20;10.82;;;;;;;7.24;54.06;101619.38;4968930;28;97384;-77
2024/01/31 00:32:17;;;;;;;20.02;10.32;;;;;;;7.29;54.32;101619.38;4978495;28;97538;-80
2024/01/31 00:34:43;;;;;;;19.30;10.75;;;;;;;7.35;54.24;101626.34;4975180;28;102338;-78
2024/01/31 00:37:09;;;;;;;16.55;10.70;;;;;;;7.37;53.97;101629.81;4959988;28;99886;-78
2024/01/31 00:39:36;;;;;;;16.63;10.75;;;;;;;7.17;54.23;101606.31;4972148;28;97192;-78
2024/01/31 00:42:01;;;;;;;14.95;10.27;;;;;;;7.24;53.96;101608.94;4970746;28;97284;-78
2024/01/31 00:44:27;;;;;;;17.65;10.82;;;;;;;7.30;54.13;101612.41;4961382;28;101279;-78
2024/01/31 00:46:52;;;;;;;18.95;11.45;;;;;;;7.13;54.19;101581.94;4955236;28;101303;-78
2024/01/31 00:49:18;;;;;;;19.65;11.85;;;;;;;7.43;53.90;101617.63;4963117;28;96736;-78
2024/01/31 00:51:44;;;;;;;22.40;12.93;;;;;;;7.28;54.09;101586.28;4994613;28;97256;-79
2024/01/31 00:54:12;;;;;;;18.05;11.15;;;;;;;7.28;53.97;101595.88;4955775;28;101212;-79
2024/01/31 00:56:39;;;;;;;23.63;13.77;;;;;;;7.39;54.47;101626.34;4987745;28;97465;-78
2024/01/31 00:59:05;;;;;;;23.60;11.75;;;;;;;7.35;53.92;101619.38;4973648;28;96848;-78
2024/01/31 01:01:30;;;;;;;15.57;10.60;;;;;;;7.27;53.83;101594.97;4957931;28;96989;-79
2024/01/31 01:03:56;;;;;;;17.65;11.02;;;;;;;7.45;53.98;101634.19;4952131;28;101423;-78
2024/01/31 01:06:23;;;;;;;19.70;12.07;;;;;;;7.39;54.23;101625.47;4975805;28;98349;-79
2024/01/31 01:08:48;;;;;;;21.75;11.63;;;;;;;7.32;53.57;101593.25;4972599;28;96806;-78
2024/01/31 01:11:14;;;;;;;23.75;12.85;;;;;;;7.35;53.85;101606.31;4961652;28;97265;-79
2024/01/31 01:13:41;;;;;;;18.40;12.27;;;;;;;7.38;54.07;101595.84;4949488;28;100158;-78
2024/01/31 01:16:07;;;;;;;18.77;11.80;;;;;;;7.52;53.97;101628.94;4973354;28;101222;-78
2024/01/31 01:18:32;;;;;;;18.95;11.43;;;;;;;7.36;53.92;101602.84;4972569;28;96872;-78
2024/01/31 01:20:59;;;;;;;18.13;11.75;;;;;;;7.42;54.02;101615.03;4977076;28;98035;-79
2024/01/31 01:23:24;;;;;;;18.08;11.60;;;;;;;7.57;53.73;101632.44;4961147;28;101964;-78
2024/01/31 01:25:50;;;;;;;21.25;12.07;;;;;;;7.52;53.70;101610.66;4974638;28;98035;-78
2024/01/31 01:28:15;;;;;;;17.25;11.93;;;;;;;7.37;53.90;101593.25;4959182;28;96813;-78
2024/01/31 01:30:41;;;;;;;17.10;11.05;;;;;;;7.62;53.73;101628.94;4978393;28;97207;-78
2024/01/31 01:33:07;;;;;;;17.50;11.10;;;;;;;7.55;53.80;101635.03;4949799;28;100115;-80
2024/01/31 01:35:32;;;;;;;15.98;10.65;;;;;;;7.41;53.87;101615.88;4964982;28;100307;-79
2024/01/31 01:37:58;;;;;;;15.93;10.52;;;;;;;7.39;53.72;101588.91;4961717;28;96977;-79
2024/01/31 01:40:23;;;;;;;17.02;10.98;;;;;;;7.47;53.71;101627.19;4962165;28;97002;-79
2024/01/31 01:42:49;;;;;;;20.00;11.25;;;;;;;7.46;54.00;101621.97;4972296;28;99883;-78
2024/01/31 01:45:14;;;;;;;17.52;11.05;;;;;;;7.43;54.06;101615.00;4958021;28;101487;-78
2024/01/31 01:47:48;;;;;;;17.08;11.95;;;;;;;7.55;53.77;101631.56;4954213;28;96760;-78
2024/01/31 01:50:13;;;;;;;19.75;11.38;;;;;;;7.34;53.96;101614.16;4968541;28;96759;-79
2024/01/31 01:52:39;;;;;;;16.25;10.75;;;;;;;7.62;54.08;101641.13;4970983;28;101163;-79
2024/01/31 01:55:05;;;;;;;18.40;11.07;;;;;;;7.40;54.23;101617.63;4954247;28;101427;-78
2024/01/31 01:57:33;;;;;;;17.48;10.00;;;;;;;7.69;53.54;101635.03;4957487;28;96809;-78
2024/01/31 01:59:59;;;;;;;18.80;11.60;;;;;;;7.53;53.88;101596.72;4958613;28;96960;-78
2024/01/31 02:02:27;;;;;;;19.15;11.65;;;;;;;7.85;53.52;101636.75;4974726;28;99564;-79
2024/01/31 02:04:53;;;;;;;17.52;10.35;;;;;;;7.66;53.50;101585.38;4976994;28;101397;-80
2024/01/31 02:07:24;;;;;;;19.13;9.68;;;;;;;7.79;53.85;101634.13;4977891;28;97229;-78
2024/01/31 02:09:53;;;;;;;19.20;11.48;;;;;;;7.55;54.13;101614.13;4976184;28;96864;-78
2024/01/31 02:12:19;;;;;;;20.35;10.40;;;;;;;7.57;54.21;101590.63;4976399;28;101411;-78
2024/01/31 02:14:47;;;;;;;14.30;10.32;;;;;;;7.44;54.07;101571.47;4977602;28;97404;-78
2024/01/31 02:17:13;;;;;;;20.15;11.27;;;;;;;7.55;54.23;101581.91;4974392;28;97191;-79
2024/01/31 02:19:40;;;;;;;17.92;11.80;;;;;;;7.62;54.32;101608.03;4968144;28;96772;-79
2024/01/31 02:22:07;;;;;;;15.23;10.02;;;;;;;7.56;54.07;101587.13;4956824;28;101405;-78
2024/01/31 02:24:34;;;;;;;19.40;11.27;;;;;;;7.33;54.42;101541.88;4956118;28;101512;-80
2024/01/31 02:26:59;;;;;;;15.30;10.48;;;;;;;7.71;54.37;101609.78;4991177;28;96741;-78
2024/01/31 02:29:25;;;;;;;17.40;11.35;;;;;;;7.48;54.69;101599.34;4971125;28;97014;-78
2024/01/31 02:31:51;;;;;;;18.50;12.13;;;;;;;7.52;55.00;101606.28;4973243;28;98678;-78
2024/01/31 02:34:18;;;;;;;17.38;10.52;;;;;;;7.60;54.93;101611.53;4967947;28;101327;-78
2024/01/31 02:36:44;;;;;;;19.23;11.40;;;;;;;7.54;54.36;101594.09;4957103;28;97057;-79
2024/01/31 02:39:09;;;;;;;17.80;11.13;;;;;;;7.75;54.74;101631.53;4950377;28;96898;-79
2024/01/31 02:41:35;;;;;;;17.23;11.05;;;;;;;7.79;54.38;101628.03;4973561;28;102524;-79
2024/01/31 02:44:00;;;;;;;16.40;10.70;;;;;;;7.52;54.50;101576.69;4975052;28;101205;-79
2024/01/31 02:46:25;;;;;;;18.88;12.60;;;;;;;7.53;54.51;101594.97;4973789;28;96777;-78
2024/01/31 02:48:53;;;;;;;17.55;11.43;;;;;;;7.62;54.30;101596.69;4976413;28;96949;-78
2024/01/31 02:51:18;;;;;;;19.95;11.65;;;;;;;7.66;54.60;101614.13;4976157;28;100931;-79
2024/01/31 02:53:45;;;;;;;15.15;10.35;;;;;;;7.52;54.50;101582.78;4963198;28;100924;-79
2024/01/31 02:56:11;;;;;;;18.70;10.90;;;;;;;7.71;53.90;101589.72;4974552;28;97312;-79
2024/01/31 02:58:36;;;;;;;17.17;11.38;;;;;;;7.77;54.07;101598.44;4968348;28;98183;-79
2024/01/31 03:01:06;;;;;;;20.58;11.60;;;;;;;7.77;54.56;101614.13;4955093;28;101024;-79
2024/01/31 03:03:32;;;;;;;19.40;11.20;;;;;;;7.53;54.49;101591.47;4954009;28;101562;-78
2024/01/31 03:05:57;;;;;;;19.45;11.52;;;;;;;7.63;54.55;101594.09;4968681;28;97299;-79
2024/01/31 03:08:23;;;;;;;16.10;10.73;;;;;;;7.68;54.54;101599.31;4971933;28;96997;-78
2024/01/31 03:10:49;;;;;;;19.70;12.05;;;;;;;7.70;54.20;101581.88;4959811;28;101756;-80
2024/01/31 03:13:14;;;;;;;16.63;11.35;;;;;;;7.94;54.15;101614.91;4971688;28;100874;-79
2024/01/31 03:15:40;;;;;;;21.95;12.32;;;;;;;7.76;53.86;101587.09;4956264;28;97108;-78
2024/01/31 03:18:07;;;;;;;18.30;12.95;;;;;;;7.71;54.44;101583.63;4974298;28;96890;-79
2024/01/31 03:20:35;;;;;;;21.15;11.43;;;;;;;7.89;53.64;101603.63;4972930;28;100596;-78
2024/01/31 03:23:01;;;;;;;27.55;13.35;;;;;;;7.94;54.00;101612.31;4957343;28;101136;-78
2024/01/31 03:25:26;;;;;;;19.05;12.10;;;;;;;7.87;53.81;101590.53;4939048;28;97266;-79
2024/01/31 03:27:53;;;;;;;18.88;12.27;;;;;;;7.90;53.78;101602.75;4960136;28;97341;-79
2024/01/31 03:30:19;;;;;;;21.73;12.75;;;;;;;7.81;54.22;101598.41;4983805;28;101311;-78
2024/01/31 03:32:46;;;;;;;20.92;12.68;;;;;;;7.86;54.15;101606.25;4946656;28;101176;-78
2024/01/31 03:35:12;;;;;;;20.15;11.65;;;;;;;8.07;53.79;101629.72;4969504;28;96936;-80
2024/01/31 03:37:37;;;;;;;17.98;11.30;;;;;;;8.12;54.00;101625.34;4957770;28;96970;-79
2024/01/31 03:40:08;;;;;;;21.10;13.23;;;;;;;7.82;53.71;101600.13;4953697;28;99993;-78
2024/01/31 03:42:34;;;;;;;20.15;13.35;;;;;;;7.98;53.90;101621.91;4950776;28;99188;-79
2024/01/31 03:45:00;;;;;;;19.92;11.65;;;;;;;8.07;54.04;101629.72;4966505;28;96882;-80
2024/01/31 03:47:25;;;;;;;18.60;11.80;;;;;;;7.98;53.95;101608.81;4970825;28;96973;-79
2024/01/31 03:49:52;;;;;;;23.13;12.70;;;;;;;8.05;54.03;101630.59;4944309;28;101311;-79
2024/01/31 03:52:17;;;;;;;19.27;12.23;;;;;;;7.85;54.23;101596.66;4977821;28;100727;-78
2024/01/31 03:54:43;;;;;;;16.30;11.77;;;;;;;7.86;54.04;101596.66;4941555;28;96857;-78
2024/01/31 03:57:09;;;;;;;20.30;13.52;;;;;;;7.96;54.02;101596.63;4964773;28;97018;-78
2024/01/31 03:59:35;;;;;;;17.73;12.40;;;;;;;7.96;53.95;101605.34;4942704;28;100545;-79
2024/01/31 04:02:00;;;;;;;24.77;13.07;;;;;;;8.01;53.98;101603.59;4947930;28;101841;-79
2024/01/31 04:04:26;;;;;;;20.85;13.18;;;;;;;8.13;53.86;101631.44;4969521;28;96805;-78
2024/01/31 04:06:51;;;;;;;20.05;12.38;;;;;;;8.19;54.22;101634.03;4949423;28;97315;-79
2024/01/31 04:09:19;;;;;;;19.85;12.60;;;;;;;7.99;54.26;101591.38;4990588;28;100772;-79
2024/01/31 04:11:46;;;;;;;21.95;12.15;;;;;;;7.97;54.17;101601.88;4977423;28;99672;-81
2024/01/31 04:14:13;;;;;;;19.10;12.20;;;;;;;8.12;54.16;101638.44;4954240;28;97012;-79
2024/01/31 04:16:38;;;;;;;18.92;12.77;;;;;;;7.93;54.38;101602.72;4966931;28;96857;-80
2024/01/31 04:19:04;;;;;;;21.35;12.38;;;;;;;8.08;54.25;101627.97;4959978;28;101360;-79
2024/01/31 04:21:29;;;;;;;18.02;11.50;;;;;;;8.20;54.32;101641.00;4947545;28;101127;-79
2024/01/31 04:23:55;;;;;;;20.17;12.90;;;;;;;8.05;54.15;101622.75;4940175;28;96898;-81
2024/01/31 04:26:20;;;;;;;23.60;12.52;;;;;;;7.97;54.92;101633.25;4941679;28;97263;-79
2024/01/31 04:28:47;;;;;;;22.88;12.45;;;;;;;8.01;54.41;101613.19;4955246;28;101589;-79
2024/01/31 04:31:16;;;;;;;21.42;13.80;;;;;;;8.01;54.31;101605.34;4972676;28;100090;-79
2024/01/31 04:33:43;;;;;;;20.67;12.73;;;;;;;8.16;54.91;101641.91;4959960;28;97518;-79
2024/01/31 04:36:08;;;;;;;18.95;12.43;;;;;;;7.84;54.71;101616.69;4959115;28;97001;-79
2024/01/31 04:38:34;;;;;;;16.52;11.65;;;;;;;7.98;54.86;101636.72;4957236;28;99955;-81
2024/01/31 04:41:01;;;;;;;19.00;13.00;;;;;;;7.92;55.17;101641.09;4964063;28;100268;-78
2024/01/31 04:43:27;;;;;;;21.15;14.07;;;;;;;7.99;55.14;101656.75;4954615;28;97295;-79
2024/01/31 04:45:54;;;;;;;29.15;16.92;;;;;;;7.99;55.21;101633.22;4969781;28;97116;-79
2024/01/31 04:48:19;;;;;;;26.38;17.30;;;;;;;7.95;55.44;101648.06;4957720;28;101403;-79
2024/01/31 04:50:45;;;;;;;26.60;17.52;;;;;;;7.85;55.14;101621.06;4958308;28;101686;-80
2024/01/31 04:53:10;;;;;;;27.05;14.48;;;;;;;8.01;55.30;101634.09;4956137;28;96808;-80
2024/01/31 04:55:36;;;;;;;24.10;13.80;;;;;;;7.92;55.66;101654.16;4957715;28;97002;-80
2024/01/31 04:58:02;;;;;;;21.77;12.80;;;;;;;7.68;55.70;101623.72;4959145;28;101659;-79
2024/01/31 05:00:28;;;;;;;23.13;13.23;;;;;;;7.81;55.77;101624.56;4968616;28;97820;-80
2024/01/31 05:02:53;;;;;;;21.73;12.65;;;;;;;7.79;55.19;101607.97;4969785;28;97049;-79
2024/01/31 05:05:22;;;;;;;21.50;12.68;;;;;;;8.06;55.29;101653.28;4963453;28;97567;-79
2024/01/31 05:07:47;;;;;;;18.30;12.48;;;;;;;7.83;55.76;101614.97;4964663;28;100923;-78
2024/01/31 05:10:13;;;;;;;20.40;13.25;;;;;;;7.98;55.55;101644.56;4954605;28;101717;-79
2024/01/31 05:12:38;;;;;;;18.60;12.90;;;;;;;8.24;55.30;101668.03;4954643;28;96792;-79
2024/01/31 05:15:05;;;;;;;22.80;13.10;;;;;;;8.20;55.19;101667.16;4972217;28;97644;-78
2024/01/31 05:17:31;;;;;;;18.63;11.95;;;;;;;8.18;55.35;101661.09;4981612;28;101168;-79
2024/01/31 05:19:56;;;;;;;18.70;12.30;;;;;;;8.13;55.23;101652.38;4982255;28;99915;-78
2024/01/31 05:22:22;;;;;;;15.95;11.75;;;;;;;7.97;55.91;101650.66;4956623;28;97297;-78
2024/01/31 05:24:47;;;;;;;22.20;13.40;;;;;;;8.01;56.05;101668.97;4953107;28;96960;-78
2024/01/31 05:27:13;;;;;;;22.13;12.68;;;;;;;7.94;55.69;101655.03;4959660;28;100967;-78
2024/01/31 05:29:38;;;;;;;20.35;12.35;;;;;;;8.11;55.79;101672.41;4972102;28;98167;-78
2024/01/31 05:32:04;;;;;;;20.63;13.60;;;;;;;8.25;55.38;101661.94;4956535;28;96805;-77
2024/01/31 05:34:30;;;;;;;19.45;12.43;;;;;;;8.24;55.30;101668.91;4991681;28;97255;-80
2024/01/31 05:36:55;;;;;;;19.10;12.63;;;;;;;8.23;55.47;101666.28;4958247;28;101466;-78
2024/01/31 05:39:21;;;;;;;22.67;13.25;;;;;;;8.13;55.30;101644.53;4986555;28;97870;-77
2024/01/31 05:41:46;;;;;;;21.73;14.02;;;;;;;8.18;55.60;101654.97;4963076;28;96817;-78
2024/01/31 05:44:12;;;;;;;20.77;13.23;;;;;;;8.25;55.35;101667.16;4957438;28;97411;-78
2024/01/31 05:46:38;;;;;;;22.75;13.10;;;;;;;8.21;55.59;101658.47;4968331;28;100872;-75
2024/01/31 05:49:03;;;;;;;22.95;13.57;;;;;;;8.31;55.65;101677.59;4964859;28;97613;-75
2024/01/31 05:51:29;;;;;;;20.77;14.25;;;;;;;8.29;56.22;101674.09;4954110;28;97243;-76
2024/01/31 05:53:54;;;;;;;24.33;14.32;;;;;;;8.29;56.08;101661.03;4968844;28;97204;-77
2024/01/31 05:56:21;;;;;;;23.17;13.60;;;;;;;8.14;56.44;101644.53;4987757;28;97885;-76
2024/01/31 05:58:46;;;;;;;19.15;13.98;;;;;;;8.30;56.44;101666.28;4973628;28;101502;-72
2024/01/31 06:01:12;;;;;;;20.40;13.32;;;;;;;8.16;56.24;101645.38;4991182;28;96861;-72
2024/01/31 06:03:37;;;;;;;21.73;12.88;;;;;;;8.16;56.90;101657.59;4967068;28;97056;-72
2024/01/31 06:06:04;;;;;;;17.67;11.70;;;;;;;8.07;57.25;101673.31;4961956;28;101256;-73
2024/01/31 06:08:29;;;;;;;25.45;14.73;;;;;;;8.16;57.43;101673.28;4989475;28;98444;-72
2024/01/31 06:10:59;;;;;;;21.52;14.25;;;;;;;7.99;57.36;101675.94;4972023;28;96787;-76
2024/01/31 06:13:25;;;;;;;25.38;13.32;;;;;;;8.04;57.38;101653.25;4982000;28;96833;-79
2024/01/31 06:15:51;;;;;;;20.45;13.48;;;;;;;8.20;57.30;101672.38;4967469;28;101276;-77
2024/01/31 06:18:16;;;;;;;21.30;12.88;;;;;;;7.98;56.96;101624.53;4969555;28;101557;-77
2024/01/31 06:20:43;;;;;;;20.67;12.95;;;;;;;8.27;57.24;101673.25;4973855;28;97223;-78
2024/01/31 06:23:10;;;;;;;20.73;13.27;;;;;;;8.29;57.03;101672.38;4964336;28;98104;-78
2024/01/31 06:25:36;;;;;;;20.10;12.60;;;;;;;8.20;57.67;101661.94;4986443;28;98245;-77
2024/01/31 06:28:02;;;;;;;23.38;14.10;;;;;;;8.25;57.59;101675.88;4963729;28;101755;-77
2024/01/31 06:30:32;;;;;;;22.38;14.75;;;;;;;8.26;57.79;101681.97;4978704;28;96811;-77
2024/01/31 06:33:06;;;;;;;22.45;14.70;;;;;;;8.08;58.68;101659.34;4970372;28;96999;-78
2024/01/31 06:35:32;;;;;;;23.15;14.80;;;;;;;8.14;58.32;101670.69;4951427;28;101537;-79
2024/01/31 06:37:57;;;;;;;21.60;14.63;;;;;;;8.22;58.46;101686.34;4952363;28;98442;-79
2024/01/31 06:40:24;;;;;;;27.77;14.90;;;;;;;8.21;58.62;101684.63;4973403;28;97461;-78
2024/01/31 06:42:49;;;;;;;21.17;14.65;;;;;;;8.27;58.93;101688.97;4957338;28;98226;-78
2024/01/31 06:45:15;;;;;;;26.42;14.55;;;;;;;8.08;59.14;101681.13;4966928;28;97564;-78
2024/01/31 06:47:40;;;;;;;21.60;14.55;;;;;;;8.11;58.69;101677.66;4950311;28;100983;-76
2024/01/31 06:50:06;;;;;;;22.77;14.73;;;;;;;8.07;58.75;101673.31;4972368;28;98050;-75
2024/01/31 06:52:31;;;;;;;21.30;15.10;;;;;;;8.25;58.43;101691.56;4970807;28;97339;-74
2024/01/31 06:54:57;;;;;;;22.90;15.48;;;;;;;8.25;58.65;101696.81;4967268;28;97815;-74
2024/01/31 06:57:22;;;;;;;24.58;15.15;;;;;;;8.08;58.81;101685.50;4971301;28;97479;-74
2024/01/31 06:59:48;;;;;;;22.33;15.07;;;;;;;8.10;58.87;101705.56;4972173;28;97433;-73
2024/01/31 07:02:13;;;;;;;24.42;15.13;;;;;;;8.07;58.59;101683.78;4993084;28;97785;-74
2024/01/31 07:04:39;;;;;;;27.73;16.17;;;;;;;8.10;58.65;101684.63;4994287;28;99013;-77
2024/01/31 07:07:06;;;;;;;23.20;15.45;;;;;;;8.18;58.59;101702.94;4994561;28;97426;-74
2024/01/31 07:09:32;;;;;;;25.77;15.18;;;;;;;8.24;58.05;101691.59;4976168;28;98170;-79
2024/01/31 07:11:58;;;;;;;27.02;16.52;;;;;;;8.10;58.15;101689.88;4992964;28;98398;-75
2024/01/31 07:14:23;;;;;;;27.08;15.18;;;;;;;8.22;58.46;101717.72;4972971;28;98631;-74
2024/01/31 07:16:49;;;;;;;33.53;16.05;;;;;;;8.11;58.52;101712.50;4990500;28;98006;-75
2024/01/31 07:19:14;;;;;;;29.20;16.38;;;;;;;8.15;58.78;101723.88;4974315;28;97338;-73
2024/01/31 07:21:40;;;;;;;24.98;15.52;;;;;;;8.11;58.19;101719.50;4961755;28;98592;-71
2024/01/31 07:24:05;;;;;;;24.02;14.23;;;;;;;8.15;58.35;101700.31;4972027;28;101142;-77
2024/01/31 07:26:31;;;;;;;22.67;14.85;;;;;;;8.14;58.50;101719.50;4988989;28;97503;-80
2024/01/31 07:28:56;;;;;;;27.70;16.90;;;;;;;8.15;58.28;101734.34;4954180;28;98254;-72
2024/01/31 07:31:22;;;;;;;27.88;15.18;;;;;;;8.10;58.51;101734.31;4974505;28;97552;-73
2024/01/31 07:33:47;;;;;;;24.40;15.20;;;;;;;8.08;58.47;101727.34;4990112;28;97962;-78
2024/01/31 07:36:13;;;;;;;24.40;14.73;;;;;;;7.98;58.36;101713.44;4948351;28;100958;-72
2024/01/31 07:38:46;;;;;;;32.83;16.88;;;;;;;7.99;58.05;101680.28;4996194;28;97284;-74
2024/01/31 07:41:12;;;;;;;30.80;15.82;;;;;;;8.23;57.91;101715.97;4979905;28;97276;-73
2024/01/31 07:43:37;;;;;;;27.27;16.52;;;;;;;8.32;58.07;101727.31;5000599;28;98047;-76
2024/01/31 07:46:04;;;;;;;28.83;16.60;;;;;;;8.27;58.15;101720.34;4972600;28;97441;-73
2024/01/31 07:48:30;;;;;;;24.80;14.60;;;;;;;8.27;57.75;101712.50;4980869;28;98048;-73
2024/01/31 07:50:55;;;;;;;25.02;15.40;;;;;;;8.38;57.71;101726.44;4992746;28;96921;-74
2024/01/31 07:53:21;;;;;;;25.27;15.60;;;;;;;8.30;57.67;101731.69;4975917;28;98607;-73
2024/01/31 07:55:46;;;;;;;24.17;14.80;;;;;;;8.20;57.60;101702.91;4971736;28;97403;-74
2024/01/31 07:58:12;;;;;;;26.63;15.45;;;;;;;8.46;57.72;101737.75;4999475;28;97414;-73
2024/01/31 08:00:38;;;;;;;28.60;16.67;;;;;;;8.44;57.74;101730.81;4992981;28;97314;-73
2024/01/31 08:03:03;;;;;;;24.15;16.15;;;;;;;8.27;57.73;101697.69;4956036;28;97568;-74
2024/01/31 08:05:29;;;;;;;25.40;15.20;;;;;;;8.27;57.97;101702.03;4949756;28;100873;-72
2024/01/31 08:07:54;;;;;;;29.33;17.42;;;;;;;8.30;57.57;101702.03;4971855;28;99482;-77
2024/01/31 08:10:20;;;;;;;24.02;14.90;;;;;;;8.46;57.89;101727.28;4970995;28;98707;-78
2024/01/31 08:12:46;;;;;;;22.80;15.32;;;;;;;8.42;57.88;101737.78;4958032;28;101318;-81
2024/01/31 08:15:12;;;;;;;25.65;15.48;;;;;;;8.47;57.59;101713.34;4972194;28;97621;-76
2024/01/31 08:17:38;;;;;;;28.17;16.75;;;;;;;8.33;58.07;101713.34;4976751;28;96815;-79
2024/01/31 08:20:06;;;;;;;27.00;16.20;;;;;;;8.49;58.22;101734.28;4962512;28;97543;-79
2024/01/31 08:22:33;;;;;;;24.05;15.95;;;;;;;8.30;57.82;101713.38;4972754;28;97985;-75
2024/01/31 08:24:59;;;;;;;27.70;15.98;;;;;;;8.38;57.95;101721.22;4954525;28;101381;-80
2024/01/31 08:27:24;;;;;;;25.83;16.58;;;;;;;8.52;58.03;101747.34;4976309;28;97416;-79
2024/01/31 08:29:51;;;;;;;24.60;16.75;;;;;;;8.48;58.16;101728.16;4993026;28;98228;-77
2024/01/31 08:32:17;;;;;;;24.15;15.95;;;;;;;8.43;57.84;101718.59;4956567;28;100815;-80
2024/01/31 08:34:42;;;;;;;28.27;15.00;;;;;;;8.49;58.19;101722.06;4990022;28;98326;-81
2024/01/31 08:37:08;;;;;;;25.42;16.38;;;;;;;8.62;57.94;101730.75;4951159;28;98635;-80
2024/01/31 08:39:33;;;;;;;29.10;16.38;;;;;;;8.64;58.05;101739.47;4974342;28;97451;-81
2024/01/31 08:41:59;;;;;;;25.38;15.68;;;;;;;8.67;58.02;101730.72;4971664;28;97923;-81
2024/01/31 08:44:24;;;;;;;27.30;16.05;;;;;;;8.74;57.79;101728.06;4990655;28;97980;-79
2024/01/31 08:46:51;;;;;;;28.25;16.15;;;;;;;9.03;57.34;101754.13;4973162;28;97386;-80
2024/01/31 08:49:17;;;;;;;28.42;16.88;;;;;;;8.90;57.59;101752.47;4982013;28;98120;-78
2024/01/31 08:51:42;;;;;;;27.63;17.83;;;;;;;8.88;57.92;101748.97;4988423;28;98049;-75
2024/01/31 08:54:08;;;;;;;26.70;16.38;;;;;;;9.01;57.16;101755.88;4972714;28;98439;-77
2024/01/31 08:56:34;;;;;;;30.17;17.70;;;;;;;8.98;57.17;101728.84;4975659;28;96960;-78
2024/01/31 08:58:59;;;;;;;31.52;18.02;;;;;;;8.92;57.84;101736.72;4956996;28;98232;-77
2024/01/31 09:01:25;;;;;;;31.92;18.25;;;;;;;8.99;57.65;101759.41;4957198;28;97633;-78
2024/01/31 09:03:51;;;;;;;28.67;17.77;;;;;;;9.12;57.69;101758.47;4994183;28;97891;-79
2024/01/31 09:06:16;;;;;;;34.80;19.05;;;;;;;9.09;57.60;101737.53;4973920;28;97886;-80
2024/01/31 09:08:42;;;;;;;30.30;19.10;;;;;;;9.20;57.46;101725.22;4961652;28;98122;-84
2024/01/31 09:11:08;;;;;;;32.10;18.17;;;;;;;9.33;57.56;101726.00;4980267;28;98221;-83
2024/01/31 09:13:33;;;;;;;35.55;18.10;;;;;;;9.35;56.71;101718.16;4970386;28;98181;-84
2024/01/31 09:16:00;;;;;;;32.40;17.58;;;;;;;9.71;56.66;101751.09;4939852;28;98531;-77
2024/01/31 09:18:25;;;;;;;38.92;19.48;;;;;;;10.23;55.79;101752.38;4976540;28;96953;-74
2024/01/31 09:20:51;;;;;;;32.65;19.60;;;;;;;10.23;55.56;101739.25;4972660;28;101225;-75
2024/01/31 09:23:16;;;;;;;25.90;17.67;;;;;;;10.76;54.56;101745.69;4956555;28;98200;-82
2024/01/31 09:25:42;;;;;;;35.25;19.20;;;;;;;11.18;53.45;101756.56;4974703;28;98632;-82
2024/01/31 09:28:07;;;;;;;32.03;17.80;;;;;;;11.20;53.38;101763.53;4959333;28;97396;-82
2024/01/31 09:30:33;;;;;;;30.10;17.45;;;;;;;11.02;53.89;101762.00;4968079;28;100835;-82
2024/01/31 09:32:58;;;;;;;35.47;19.48;;;;;;;10.84;53.90;101765.72;4974350;28;97397;-82
2024/01/31 09:35:24;;;;;;;27.35;18.15;;;;;;;10.54;54.41;101761.72;4968987;28;99100;-81
2024/01/31 09:37:49;;;;;;;34.65;17.92;;;;;;;11.03;53.18;101739.25;4957675;28;97464;-82
2024/01/31 09:40:15;;;;;;;32.75;18.25;;;;;;;11.13;53.03;101761.00;4974194;28;98101;-80
2024/01/31 09:42:43;;;;;;;26.63;18.05;;;;;;;10.99;53.33;101761.19;4977041;28;97741;-82
2024/01/31 09:45:11;;;;;;;37.75;19.00;;;;;;;10.87;53.40;101755.19;4970926;28;97514;-75
2024/01/31 09:47:39;;;;;;;39.75;19.63;;;;;;;10.77;53.30;101765.84;4978901;28;97854;-82
2024/01/31 09:50:05;;;;;;;32.72;19.55;;;;;;;10.51;53.44;101751.25;4961931;28;97908;-82
2024/01/31 09:52:35;;;;;;;27.55;19.63;;;;;;;10.29;53.67;101747.97;4975528;28;98038;-75
2024/01/31 09:55:01;;;;;;;29.73;18.38;;;;;;;10.30;54.52;101738.38;4968495;28;98331;-83
2024/01/31 09:57:27;;;;;;;33.42;20.23;;;;;;;11.04;52.83;101746.22;4978089;28;98522;-79
2024/01/31 09:59:55;;;;;;;24.10;13.90;;;;;;;11.57;59.74;101753.31;4965929;28;101939;-77
2024/01/31 10:02:22;;;;;;;33.90;18.35;;;;;;;12.19;57.34;101752.38;4972662;28;100141;-81
2024/01/31 10:04:50;;;;;;;32.20;20.02;;;;;;;11.74;52.84;101733.78;4972072;28;98343;-84
2024/01/31 10:07:22;;;;;;;28.33;18.23;;;;;;;11.55;52.25;101741.97;4977254;28;97629;-83
2024/01/31 10:09:49;;;;;;;32.85;18.20;;;;;;;11.38;52.56;101746.63;4972221;28;97874;-82
2024/01/31 10:12:17;;;;;;;33.97;18.75;;;;;;;11.07;53.06;101740.94;4990568;28;98281;-83
2024/01/31 10:14:42;;;;;;;32.20;18.83;;;;;;;10.98;53.11;101746.31;4966325;28;97445;-84
2024/01/31 10:17:08;;;;;;;25.25;17.67;;;;;;;10.73;53.76;101736.09;4967182;28;97972;-82
2024/01/31 10:19:33;;;;;;;32.13;18.20;;;;;;;10.54;54.12;101703.94;4977261;28;98147;-82
2024/01/31 10:21:59;;;;;;;36.97;17.30;;;;;;;10.57;54.25;101731.94;4988741;28;98043;-81
2024/01/31 10:24:24;;;;;;;25.80;17.67;;;;;;;10.36;54.73;101712.91;4969958;28;97361;-82
2024/01/31 10:26:50;;;;;;;30.20;16.90;;;;;;;10.43;54.77;101722.44;4956919;28;98565;-81
2024/01/31 10:29:18;;;;;;;29.45;17.95;;;;;;;10.31;54.85;101693.72;4974067;28;101628;-82
2024/01/31 10:31:46;;;;;;;30.25;18.48;;;;;;;10.40;55.10;101729.50;4957746;28;98401;-80
2024/01/31 10:34:13;;;;;;;26.63;17.42;;;;;;;10.24;55.55;101722.63;4977159;28;98425;-82
2024/01/31 10:36:40;;;;;;;26.98;16.25;;;;;;;10.22;55.56;101720.03;4976687;28;98851;-83
2024/01/31 10:39:09;;;;;;;32.17;17.85;;;;;;;10.39;55.40;101719.88;4974220;28;97695;-82
2024/01/31 10:41:35;;;;;;;26.45;16.75;;;;;;;10.17;55.49;101690.34;4977692;28;98428;-83
2024/01/31 10:44:03;;;;;;;27.45;16.83;;;;;;;10.42;55.63;101714.59;4954207;28;98780;-83
2024/01/31 10:46:29;;;;;;;25.48;16.08;;;;;;;10.40;55.74;101706.72;4979858;28;96929;-82
2024/01/31 10:48:54;;;;;;;23.63;15.43;;;;;;;10.42;55.63;101706.72;4972148;28;98319;-82
2024/01/31 10:51:21;;;;;;;28.40;13.63;;;;;;;10.29;55.91;101715.59;4964343;28;102082;-82
2024/01/31 10:53:46;;;;;;;22.55;13.93;;;;;;;10.13;56.10;101697.38;4977770;28;97874;-82
2024/01/31 10:56:13;;;;;;;21.50;13.25;;;;;;;10.06;56.79;101718.44;4938747;28;98286;-83
2024/01/31 10:58:39;;;;;;;22.75;13.20;;;;;;;10.17;56.75;101716.56;4960595;28;97637;-83
2024/01/31 11:01:04;;;;;;;21.45;12.27;;;;;;;10.24;56.06;101718.28;4972522;28;100595;-78
2024/01/31 11:03:30;;;;;;;19.77;12.50;;;;;;;10.12;56.76;101706.16;4968208;28;97860;-77
2024/01/31 11:05:56;;;;;;;17.10;12.52;;;;;;;10.26;56.30;101705.97;4954706;28;98107;-76
2024/01/31 11:08:23;;;;;;;21.88;13.43;;;;;;;10.27;56.22;101694.66;4973737;28;97764;-76